Flight Track Log - Related Links

Times and Time Zones

All times are in EDT time to prevent confusion due to time zone crossing. See the SWA718 flight status page for this flight to view local times or setup timezone preferences in your user account.

Time Position Orientation Groundspeed Altitude Reporting Facility
EDT Latitude Longitude Course Direction KTS MPH feet Rate Location/Type
Wed 11:32:13 PM 41.7647 -87.8044 270° West 157 181 3,400  Level Chicago Center
Wed 11:33:14 PM 41.7350 -87.8933 246° West 217 250 4,000 1,721 Climbing Chicago Center
Wed 11:34:15 PM 41.7419 -87.9794 276° West 235 270 6,900 3,492 Climbing Chicago Center
Wed 11:35:16 PM 41.7508 -88.0703 278° West 246 283 11,100 2,508 Climbing Chicago Center
Wed 11:36:17 PM 41.7561 -88.1667 274° West 260 299 12,000 1,131 Climbing Chicago Center
Wed 11:37:00 PM 41.7333 -88.5307 270° West  Level FlightAware Approximate
Wed 11:37:18 PM 41.7514 -88.2697 267° West 277 319 13,400  Level Chicago Center
Wed 11:38:19 PM 41.7464 -88.3931 267° West 327 376 17,200 3,443 Climbing Chicago Center
Wed 11:39:20 PM 41.7425 -88.5197 268° West 340 391 20,400 2,951 Climbing Chicago Center
Wed 11:40:21 PM 41.7372 -88.6522 267° West 355 409 23,200 3,098 Climbing Chicago Center
Wed 11:41:22 PM 41.7311 -88.8167 267° West 370 426 26,700 2,876 Climbing Chicago Center
Wed 11:42:22 PM 41.7292 -88.9547 269° West 372 428 29,000 2,430 Climbing Chicago Center
Wed 11:43:23 PM 41.7267 -89.0950 269° West 379 436 31,600 2,262 Climbing Chicago Center
Wed 11:44:24 PM 41.7219 -89.2333 267° West 377 434 33,600 1,820 Climbing Chicago Center
Wed 11:45:25 PM 41.7175 -89.3711 268° West 373 429 35,300 1,180 Climbing Chicago Center
Wed 11:46:26 PM 41.7117 -89.5097 267° West 376 433 36,000 344 Climbing Chicago Center
Wed 11:47:27 PM 41.7075 -89.6606 268° West 375 432 36,000  Level Chicago Center
Wed 11:48:28 PM 41.7022 -89.7972 267° West 371 427 36,000  Level Chicago Center
Wed 11:49:29 PM 41.6972 -89.9342 267° West 370 426 36,000  Level Chicago Center
Wed 11:50:30 PM 41.6917 -90.0719 267° West 372 428 36,000  Level Chicago Center
Wed 11:51:30 PM 41.6867 -90.2089 267° West 371 427 36,000  Level Chicago Center
Wed 11:52:31 PM 41.6781 -90.3522 265° West 386 444 36,000  Level Chicago Center
Wed 11:53:32 PM 41.6733 -90.4878 267° West 372 428 36,000  Level Chicago Center
Wed 11:54:33 PM 41.6681 -90.6203 267° West 370 426 36,000  Level Chicago Center
Wed 11:55:34 PM 41.6603 -90.7614 266° West 376 433 36,000  Level Chicago Center
Wed 11:56:35 PM 41.6525 -90.9264 266° West 374 430 36,000  Level Chicago Center
Wed 11:57:36 PM 41.6458 -91.0636 266° West 375 432 36,000  Level Chicago Center
Wed 11:58:36 PM 41.6383 -91.2025 266° West 375 432 36,000  Level Chicago Center
Wed 11:59:37 PM 41.6322 -91.3417 267° West 378 435 36,000  Level Chicago Center
Thu 12:00:38 AM 41.6247 -91.4814 266° West 378 435 36,000  Level Chicago Center
Thu 12:01:39 AM 41.6164 -91.6181 265° West 373 429 36,000  Level Chicago Center
Thu 12:02:39 AM 41.6103 -91.7544 267° West 370 426 36,000  Level Chicago Center
Thu 12:03:40 AM 41.6025 -91.8894 266° West 367 422 36,000  Level Chicago Center
Thu 12:04:41 AM 41.5950 -92.0261 266° West 369 425 36,000  Level Chicago Center
Thu 12:05:42 AM 41.5864 -92.1639 265° West 373 429 36,000  Level Chicago Center
Thu 12:06:42 AM 41.5772 -92.3028 265° West 376 433 36,000  Level Chicago Center
Thu 12:07:43 AM 41.5692 -92.4406 266° West 377 434 36,000  Level Chicago Center
Thu 12:08:44 AM 41.5589 -92.6042 265° West 373 429 36,000  Level Chicago Center
Thu 12:09:39 AM 41.5522 -92.7139 265° West 373 429 36,000  Level Minneapolis Center
Thu 12:10:40 AM 41.5422 -92.8508 264° West 375 432 36,000  Level Minneapolis Center
Thu 12:11:41 AM 41.5336 -92.9867 265° West 374 430 36,000  Level Minneapolis Center
Thu 12:12:42 AM 41.5222 -93.1500 265° West 372 428 36,000  Level Minneapolis Center
Thu 12:13:42 AM 41.5100 -93.2567 261° West 370 426 36,000  Level Minneapolis Center
Thu 12:14:43 AM 41.4922 -93.4211 262° West 375 432 36,000  Level Minneapolis Center
Thu 12:15:44 AM 41.4800 -93.5542 263° West 370 426 36,000  Level Minneapolis Center
Thu 12:16:57 AM 41.4667 -93.6892 263° West 370 426 36,000 -180 Level Minneapolis Center
Thu 12:17:57 AM 41.4481 -93.8517 261° West 372 428 35,600 -1,388 Descending Minneapolis Center
Thu 12:18:58 AM 41.4342 -93.9847 262° West 368 423 33,200 -2,705 Descending Minneapolis Center
Thu 12:19:59 AM 41.4203 -94.1128 262° West 358 412 30,100 -3,273 Descending Minneapolis Center
Thu 12:20:59 AM 41.4044 -94.2619 262° West 354 407 26,600 -2,975 Descending Minneapolis Center
Thu 12:22:00 AM 41.3892 -94.3919 261° West 354 407 24,100 -2,284 Descending Minneapolis Center
Thu 12:23:13 AM 41.3719 -94.5375 261° West 337 388 21,500 -2,060 Descending Minneapolis Center
Thu 12:24:14 AM 41.3589 -94.6542 262° West 324 373 19,500 -1,835 Descending Minneapolis Center
Thu 12:25:14 AM 41.3469 -94.7644 262° West 311 358 17,800 -1,686 Descending Minneapolis Center
Thu 12:26:15 AM 41.3333 -94.8731 261° West 304 350 16,100 -1,210 Descending Minneapolis Center
Thu 12:27:13 AM 41.3322 -94.9878 269° West 289 333 15,400 -1,982 Descending Minneapolis Center
Thu 12:28:07 AM 41.3203 -95.0808 260° West 295 339 12,400 -2,579 Descending Minneapolis Center
Thu 12:29:14 AM 41.3042 -95.2078 260° West 303 349 10,200 -1,559 Descending Minneapolis Center
Thu 12:30:14 AM 41.2917 -95.2928 259° West 218 251 9,100 -1,438 Descending Minneapolis Center
Thu 12:31:15 AM 41.2808 -95.3775 260° West 230 265 7,300 -1,623 Descending Minneapolis Center
Thu 12:32:16 AM 41.2703 -95.4647 261° West 240 276 5,800 -1,537 Descending Minneapolis Center
Thu 12:33:16 AM 41.2572 -95.5494 258° West 236 272 4,200 -1,438 Descending Minneapolis Center
Thu 12:34:17 AM 41.2447 -95.6397 260° West 234 269 2,900 -639 Descending Minneapolis Center
Thu 12:35:18 AM 41.2336 -95.7242 260° West 232 267 2,900 50 Level Minneapolis Center
Thu 12:36:18 AM 41.2236 -95.7947 259° West 184 212 3,000 -298 Climbing Minneapolis Center
Thu 12:37:19 AM 41.2369 -95.8347 294° West 115 132 2,300 -645 Descending Minneapolis Center
Thu 12:38:19 AM 41.2614 -95.8597 322° Northwest 105 121 1,700 -532 Descending Minneapolis Center
Thu 12:39:23 AM 41.2861 -95.8792 329° Northwest 119 137 1,200 -469 Descending Minneapolis Center
Thu 12:41:00 AM 41.3000 -95.8833 270° West  Level FlightAware Approximate

Login

Don't have an account? Register now (free) for customized features, flight alerts, and more!